sensor_id;sensor_type;location;lat;lon;timestamp;P1;durP1;ratioP1;P2;durP2;ratioP2
24617;SDS011;12762;51.730;5.356;2023-04-25T00:01:08;6.97;;;2.50;;
24617;SDS011;12762;51.730;5.356;2023-04-25T00:03:35;10.07;;;2.50;;
24617;SDS011;12762;51.730;5.356;2023-04-25T00:06:02;9.83;;;2.60;;
24617;SDS011;12762;51.730;5.356;2023-04-25T00:08:29;9.53;;;2.27;;
24617;SDS011;12762;51.730;5.356;2023-04-25T00:10:56;7.20;;;2.20;;
24617;SDS011;12762;51.730;5.356;2023-04-25T00:13:24;9.37;;;2.50;;
24617;SDS011;12762;51.730;5.356;2023-04-25T00:15:52;8.87;;;2.83;;
24617;SDS011;12762;51.730;5.356;2023-04-25T00:18:25;9.43;;;2.57;;
24617;SDS011;12762;51.730;5.356;2023-04-25T00:20:55;10.87;;;3.07;;
24617;SDS011;12762;51.730;5.356;2023-04-25T00:23:22;7.77;;;3.10;;
24617;SDS011;12762;51.730;5.356;2023-04-25T00:25:50;11.40;;;3.23;;
24617;SDS011;12762;51.730;5.356;2023-04-25T00:28:17;12.37;;;2.93;;
24617;SDS011;12762;51.730;5.356;2023-04-25T00:30:44;12.40;;;3.10;;
24617;SDS011;12762;51.730;5.356;2023-04-25T00:33:10;8.60;;;3.00;;
24617;SDS011;12762;51.730;5.356;2023-04-25T00:35:37;16.17;;;3.20;;
24617;SDS011;12762;51.730;5.356;2023-04-25T00:38:07;11.17;;;3.00;;
24617;SDS011;12762;51.730;5.356;2023-04-25T00:40:37;8.13;;;3.33;;
24617;SDS011;12762;51.730;5.356;2023-04-25T00:43:11;8.80;;;2.83;;
24617;SDS011;12762;51.730;5.356;2023-04-25T00:45:38;10.60;;;3.17;;
24617;SDS011;12762;51.730;5.356;2023-04-25T00:48:09;12.57;;;3.53;;
24617;SDS011;12762;51.730;5.356;2023-04-25T00:50:36;10.27;;;3.37;;
24617;SDS011;12762;51.730;5.356;2023-04-25T00:53:03;11.07;;;4.33;;
24617;SDS011;12762;51.730;5.356;2023-04-25T00:55:30;12.57;;;4.00;;
24617;SDS011;12762;51.730;5.356;2023-04-25T00:57:57;7.80;;;2.80;;
24617;SDS011;12762;51.730;5.356;2023-04-25T01:00:24;12.13;;;3.80;;
24617;SDS011;12762;51.730;5.356;2023-04-25T01:02:51;12.93;;;3.67;;
24617;SDS011;12762;51.730;5.356;2023-04-25T01:05:19;13.50;;;3.90;;
24617;SDS011;12762;51.730;5.356;2023-04-25T01:07:45;10.83;;;3.63;;
24617;SDS011;12762;51.730;5.356;2023-04-25T01:10:13;11.40;;;3.53;;
24617;SDS011;12762;51.730;5.356;2023-04-25T01:12:41;12.83;;;3.87;;
24617;SDS011;12762;51.730;5.356;2023-04-25T01:15:08;18.27;;;3.90;;
24617;SDS011;12762;51.730;5.356;2023-04-25T01:17:35;13.97;;;4.17;;
24617;SDS011;12762;51.730;5.356;2023-04-25T01:20:03;13.67;;;4.53;;
24617;SDS011;12762;51.730;5.356;2023-04-25T01:22:31;17.27;;;4.43;;
24617;SDS011;12762;51.730;5.356;2023-04-25T01:24:59;13.83;;;4.23;;
24617;SDS011;12762;51.730;5.356;2023-04-25T01:27:26;17.47;;;3.93;;
24617;SDS011;12762;51.730;5.356;2023-04-25T01:29:54;15.77;;;3.90;;
24617;SDS011;12762;51.730;5.356;2023-04-25T01:32:22;17.03;;;4.10;;
24617;SDS011;12762;51.730;5.356;2023-04-25T01:34:50;15.67;;;3.60;;
24617;SDS011;12762;51.730;5.356;2023-04-25T01:37:19;13.10;;;3.90;;
24617;SDS011;12762;51.730;5.356;2023-04-25T01:39:46;14.63;;;4.60;;
24617;SDS011;12762;51.730;5.356;2023-04-25T01:42:14;16.63;;;4.00;;
24617;SDS011;12762;51.730;5.356;2023-04-25T01:44:42;17.87;;;4.27;;
24617;SDS011;12762;51.730;5.356;2023-04-25T01:47:09;14.37;;;3.60;;
24617;SDS011;12762;51.730;5.356;2023-04-25T01:49:36;12.73;;;4.17;;
24617;SDS011;12762;51.730;5.356;2023-04-25T01:52:03;15.67;;;3.93;;
24617;SDS011;12762;51.730;5.356;2023-04-25T01:54:30;13.17;;;3.87;;
24617;SDS011;12762;51.730;5.356;2023-04-25T01:56:57;16.60;;;4.23;;
24617;SDS011;12762;51.730;5.356;2023-04-25T01:59:26;11.47;;;4.23;;
24617;SDS011;12762;51.730;5.356;2023-04-25T02:01:53;12.43;;;4.03;;
24617;SDS011;12762;51.730;5.356;2023-04-25T02:04:20;13.57;;;3.90;;
24617;SDS011;12762;51.730;5.356;2023-04-25T02:06:47;16.43;;;4.83;;
24617;SDS011;12762;51.730;5.356;2023-04-25T02:09:14;17.07;;;4.40;;
24617;SDS011;12762;51.730;5.356;2023-04-25T02:11:41;22.37;;;4.37;;
24617;SDS011;12762;51.730;5.356;2023-04-25T02:14:08;16.80;;;4.20;;
24617;SDS011;12762;51.730;5.356;2023-04-25T02:16:34;18.33;;;5.00;;
24617;SDS011;12762;51.730;5.356;2023-04-25T02:19:02;20.60;;;4.83;;
24617;SDS011;12762;51.730;5.356;2023-04-25T02:21:29;16.53;;;4.37;;
24617;SDS011;12762;51.730;5.356;2023-04-25T02:23:56;13.83;;;4.13;;
24617;SDS011;12762;51.730;5.356;2023-04-25T02:26:23;17.37;;;4.40;;
24617;SDS011;12762;51.730;5.356;2023-04-25T02:28:50;17.77;;;4.37;;
24617;SDS011;12762;51.730;5.356;2023-04-25T02:31:17;14.63;;;4.20;;
24617;SDS011;12762;51.730;5.356;2023-04-25T02:33:45;16.13;;;4.30;;
24617;SDS011;12762;51.730;5.356;2023-04-25T02:36:14;14.10;;;4.03;;
24617;SDS011;12762;51.730;5.356;2023-04-25T02:38:41;15.00;;;4.40;;
24617;SDS011;12762;51.730;5.356;2023-04-25T02:41:07;14.73;;;4.00;;
24617;SDS011;12762;51.730;5.356;2023-04-25T02:43:34;17.20;;;4.37;;
24617;SDS011;12762;51.730;5.356;2023-04-25T02:46:01;17.17;;;4.57;;
24617;SDS011;12762;51.730;5.356;2023-04-25T02:48:28;14.00;;;4.67;;
24617;SDS011;12762;51.730;5.356;2023-04-25T02:50:55;14.03;;;3.97;;
24617;SDS011;12762;51.730;5.356;2023-04-25T02:53:22;16.13;;;3.90;;
24617;SDS011;12762;51.730;5.356;2023-04-25T02:55:49;11.53;;;4.23;;
24617;SDS011;12762;51.730;5.356;2023-04-25T02:58:16;17.07;;;4.53;;
24617;SDS011;12762;51.730;5.356;2023-04-25T03:00:43;13.53;;;4.30;;
24617;SDS011;12762;51.730;5.356;2023-04-25T03:03:10;16.37;;;3.77;;
24617;SDS011;12762;51.730;5.356;2023-04-25T03:05:37;19.13;;;4.67;;
24617;SDS011;12762;51.730;5.356;2023-04-25T03:08:06;15.93;;;4.30;;
24617;SDS011;12762;51.730;5.356;2023-04-25T03:10:33;10.47;;;4.07;;
24617;SDS011;12762;51.730;5.356;2023-04-25T03:13:00;15.90;;;4.33;;
24617;SDS011;12762;51.730;5.356;2023-04-25T03:15:27;15.10;;;4.30;;
24617;SDS011;12762;51.730;5.356;2023-04-25T03:17:53;14.77;;;4.33;;
24617;SDS011;12762;51.730;5.356;2023-04-25T03:20:20;18.90;;;3.90;;
24617;SDS011;12762;51.730;5.356;2023-04-25T03:22:47;17.40;;;3.87;;
24617;SDS011;12762;51.730;5.356;2023-04-25T03:25:14;13.77;;;4.03;;
24617;SDS011;12762;51.730;5.356;2023-04-25T03:27:41;11.33;;;3.80;;
24617;SDS011;12762;51.730;5.356;2023-04-25T03:30:08;14.13;;;4.80;;
24617;SDS011;12762;51.730;5.356;2023-04-25T03:32:35;12.20;;;3.73;;
24617;SDS011;12762;51.730;5.356;2023-04-25T03:35:02;16.13;;;4.37;;
24617;SDS011;12762;51.730;5.356;2023-04-25T03:37:29;13.43;;;4.27;;
24617;SDS011;12762;51.730;5.356;2023-04-25T03:39:56;17.17;;;4.20;;
24617;SDS011;12762;51.730;5.356;2023-04-25T03:42:23;21.43;;;5.10;;
24617;SDS011;12762;51.730;5.356;2023-04-25T03:44:51;18.43;;;4.50;;
24617;SDS011;12762;51.730;5.356;2023-04-25T03:47:18;17.13;;;4.93;;
24617;SDS011;12762;51.730;5.356;2023-04-25T03:49:44;13.63;;;4.23;;
24617;SDS011;12762;51.730;5.356;2023-04-25T03:52:11;15.50;;;4.57;;
24617;SDS011;12762;51.730;5.356;2023-04-25T03:54:38;17.37;;;5.10;;
24617;SDS011;12762;51.730;5.356;2023-04-25T03:57:05;13.23;;;4.57;;
24617;SDS011;12762;51.730;5.356;2023-04-25T03:59:32;14.53;;;4.30;;
24617;SDS011;12762;51.730;5.356;2023-04-25T04:01:59;20.03;;;4.23;;
24617;SDS011;12762;51.730;5.356;2023-04-25T04:04:26;16.10;;;4.63;;
24617;SDS011;12762;51.730;5.356;2023-04-25T04:06:56;13.40;;;4.47;;
24617;SDS011;12762;51.730;5.356;2023-04-25T04:09:23;22.47;;;4.70;;
24617;SDS011;12762;51.730;5.356;2023-04-25T04:11:50;15.50;;;4.37;;
24617;SDS011;12762;51.730;5.356;2023-04-25T04:14:17;20.50;;;4.00;;
24617;SDS011;12762;51.730;5.356;2023-04-25T04:16:47;15.87;;;3.90;;
24617;SDS011;12762;51.730;5.356;2023-04-25T04:19:14;13.13;;;3.87;;
24617;SDS011;12762;51.730;5.356;2023-04-25T04:21:40;15.47;;;3.73;;
24617;SDS011;12762;51.730;5.356;2023-04-25T04:24:07;14.13;;;3.80;;
24617;SDS011;12762;51.730;5.356;2023-04-25T04:26:34;11.07;;;3.93;;
24617;SDS011;12762;51.730;5.356;2023-04-25T04:29:01;12.20;;;3.60;;
24617;SDS011;12762;51.730;5.356;2023-04-25T04:31:28;10.67;;;3.50;;
24617;SDS011;12762;51.730;5.356;2023-04-25T04:33:56;10.40;;;3.90;;
24617;SDS011;12762;51.730;5.356;2023-04-25T04:36:23;15.47;;;3.80;;
24617;SDS011;12762;51.730;5.356;2023-04-25T04:38:50;20.60;;;4.73;;
24617;SDS011;12762;51.730;5.356;2023-04-25T04:41:17;11.90;;;4.20;;
24617;SDS011;12762;51.730;5.356;2023-04-25T04:43:45;14.47;;;4.03;;
24617;SDS011;12762;51.730;5.356;2023-04-25T04:46:13;18.07;;;4.23;;
24617;SDS011;12762;51.730;5.356;2023-04-25T04:48:40;17.03;;;3.50;;
24617;SDS011;12762;51.730;5.356;2023-04-25T04:51:07;13.73;;;3.80;;
24617;SDS011;12762;51.730;5.356;2023-04-25T04:53:36;13.17;;;3.30;;
24617;SDS011;12762;51.730;5.356;2023-04-25T04:56:03;12.10;;;3.20;;
24617;SDS011;12762;51.730;5.356;2023-04-25T04:58:30;16.00;;;3.23;;
24617;SDS011;12762;51.730;5.356;2023-04-25T05:01:00;10.43;;;3.07;;
24617;SDS011;12762;51.730;5.356;2023-04-25T05:03:27;12.03;;;3.47;;
24617;SDS011;12762;51.730;5.356;2023-04-25T05:05:54;7.80;;;3.30;;
24617;SDS011;12762;51.730;5.356;2023-04-25T05:08:21;8.33;;;3.23;;
24617;SDS011;12762;51.730;5.356;2023-04-25T05:10:48;12.50;;;3.60;;
24617;SDS011;12762;51.730;5.356;2023-04-25T05:13:14;9.83;;;3.27;;
24617;SDS011;12762;51.730;5.356;2023-04-25T05:15:41;11.03;;;3.17;;
24617;SDS011;12762;51.730;5.356;2023-04-25T05:18:08;12.00;;;3.27;;
24617;SDS011;12762;51.730;5.356;2023-04-25T05:20:38;14.87;;;3.30;;
24617;SDS011;12762;51.730;5.356;2023-04-25T05:23:05;11.37;;;3.47;;
24617;SDS011;12762;51.730;5.356;2023-04-25T05:25:32;12.57;;;4.07;;
24617;SDS011;12762;51.730;5.356;2023-04-25T05:27:59;12.27;;;3.57;;
24617;SDS011;12762;51.730;5.356;2023-04-25T05:30:26;10.00;;;3.20;;
24617;SDS011;12762;51.730;5.356;2023-04-25T05:32:52;12.83;;;3.83;;
24617;SDS011;12762;51.730;5.356;2023-04-25T05:35:19;17.30;;;4.43;;
24617;SDS011;12762;51.730;5.356;2023-04-25T05:37:46;15.97;;;3.60;;
24617;SDS011;12762;51.730;5.356;2023-04-25T05:40:13;13.13;;;3.53;;
24617;SDS011;12762;51.730;5.356;2023-04-25T05:42:40;11.37;;;3.47;;
24617;SDS011;12762;51.730;5.356;2023-04-25T05:45:07;7.80;;;2.93;;
24617;SDS011;12762;51.730;5.356;2023-04-25T05:47:36;11.57;;;2.67;;
24617;SDS011;12762;51.730;5.356;2023-04-25T05:50:03;10.63;;;3.10;;
24617;SDS011;12762;51.730;5.356;2023-04-25T05:52:31;10.77;;;3.00;;
24617;SDS011;12762;51.730;5.356;2023-04-25T05:54:57;9.37;;;2.80;;
24617;SDS011;12762;51.730;5.356;2023-04-25T05:57:26;8.17;;;2.87;;
24617;SDS011;12762;51.730;5.356;2023-04-25T05:59:53;13.87;;;3.83;;
24617;SDS011;12762;51.730;5.356;2023-04-25T06:02:20;8.23;;;3.07;;
24617;SDS011;12762;51.730;5.356;2023-04-25T06:04:51;17.50;;;3.20;;
24617;SDS011;12762;51.730;5.356;2023-04-25T06:07:19;9.43;;;3.40;;
24617;SDS011;12762;51.730;5.356;2023-04-25T06:09:46;8.67;;;2.80;;
24617;SDS011;12762;51.730;5.356;2023-04-25T06:12:13;11.53;;;3.13;;
24617;SDS011;12762;51.730;5.356;2023-04-25T06:14:40;10.53;;;3.03;;
24617;SDS011;12762;51.730;5.356;2023-04-25T06:17:07;9.70;;;2.80;;
24617;SDS011;12762;51.730;5.356;2023-04-25T06:19:36;12.20;;;3.37;;
24617;SDS011;12762;51.730;5.356;2023-04-25T06:22:03;10.03;;;3.00;;
24617;SDS011;12762;51.730;5.356;2023-04-25T06:24:30;9.57;;;2.70;;
24617;SDS011;12762;51.730;5.356;2023-04-25T06:26:57;11.67;;;2.90;;
24617;SDS011;12762;51.730;5.356;2023-04-25T06:29:24;7.40;;;2.03;;
24617;SDS011;12762;51.730;5.356;2023-04-25T06:31:51;10.27;;;2.63;;
24617;SDS011;12762;51.730;5.356;2023-04-25T06:34:18;8.27;;;2.40;;
24617;SDS011;12762;51.730;5.356;2023-04-25T06:36:45;9.80;;;2.27;;
24617;SDS011;12762;51.730;5.356;2023-04-25T06:39:11;9.90;;;2.73;;
24617;SDS011;12762;51.730;5.356;2023-04-25T06:41:38;13.37;;;2.23;;
24617;SDS011;12762;51.730;5.356;2023-04-25T06:44:08;9.43;;;2.40;;
24617;SDS011;12762;51.730;5.356;2023-04-25T06:46:35;8.00;;;1.93;;
24617;SDS011;12762;51.730;5.356;2023-04-25T06:49:03;11.00;;;2.27;;
24617;SDS011;12762;51.730;5.356;2023-04-25T06:51:33;6.77;;;2.23;;
24617;SDS011;12762;51.730;5.356;2023-04-25T06:54:00;6.60;;;1.90;;
24617;SDS011;12762;51.730;5.356;2023-04-25T06:56:28;12.00;;;2.60;;
24617;SDS011;12762;51.730;5.356;2023-04-25T06:58:57;7.17;;;1.77;;
24617;SDS011;12762;51.730;5.356;2023-04-25T07:01:23;8.93;;;2.13;;
24617;SDS011;12762;51.730;5.356;2023-04-25T07:03:50;9.67;;;2.00;;
24617;SDS011;12762;51.730;5.356;2023-04-25T07:06:17;5.97;;;2.20;;
24617;SDS011;12762;51.730;5.356;2023-04-25T07:08:44;6.40;;;2.13;;
24617;SDS011;12762;51.730;5.356;2023-04-25T07:11:12;7.50;;;2.37;;
24617;SDS011;12762;51.730;5.356;2023-04-25T07:13:38;4.93;;;2.37;;
24617;SDS011;12762;51.730;5.356;2023-04-25T07:16:05;6.80;;;2.30;;
24617;SDS011;12762;51.730;5.356;2023-04-25T07:18:32;11.20;;;2.37;;
24617;SDS011;12762;51.730;5.356;2023-04-25T07:20:59;8.27;;;2.30;;
24617;SDS011;12762;51.730;5.356;2023-04-25T07:23:26;18.57;;;2.60;;
24617;SDS011;12762;51.730;5.356;2023-04-25T07:25:53;10.63;;;2.07;;
24617;SDS011;12762;51.730;5.356;2023-04-25T07:28:20;8.10;;;1.90;;
24617;SDS011;12762;51.730;5.356;2023-04-25T07:30:47;12.73;;;2.30;;
24617;SDS011;12762;51.730;5.356;2023-04-25T07:33:13;7.53;;;2.10;;
24617;SDS011;12762;51.730;5.356;2023-04-25T07:35:40;7.00;;;1.40;;
24617;SDS011;12762;51.730;5.356;2023-04-25T07:38:07;13.23;;;2.20;;
24617;SDS011;12762;51.730;5.356;2023-04-25T07:40:34;10.63;;;1.63;;
24617;SDS011;12762;51.730;5.356;2023-04-25T07:43:01;4.17;;;1.03;;
24617;SDS011;12762;51.730;5.356;2023-04-25T07:45:28;10.47;;;1.67;;
24617;SDS011;12762;51.730;5.356;2023-04-25T07:47:55;8.60;;;1.73;;
24617;SDS011;12762;51.730;5.356;2023-04-25T07:50:22;8.33;;;1.73;;
24617;SDS011;12762;51.730;5.356;2023-04-25T07:52:49;14.17;;;2.53;;
24617;SDS011;12762;51.730;5.356;2023-04-25T07:55:16;7.73;;;1.73;;
24617;SDS011;12762;51.730;5.356;2023-04-25T07:57:46;7.10;;;1.60;;
24617;SDS011;12762;51.730;5.356;2023-04-25T08:00:13;12.27;;;2.83;;
24617;SDS011;12762;51.730;5.356;2023-04-25T08:02:41;6.70;;;1.90;;
24617;SDS011;12762;51.730;5.356;2023-04-25T08:05:08;7.07;;;1.70;;
24617;SDS011;12762;51.730;5.356;2023-04-25T08:07:38;9.23;;;1.60;;
24617;SDS011;12762;51.730;5.356;2023-04-25T08:10:05;10.53;;;1.87;;
24617;SDS011;12762;51.730;5.356;2023-04-25T08:12:33;6.67;;;1.70;;
24617;SDS011;12762;51.730;5.356;2023-04-25T08:14:59;6.77;;;1.33;;
24617;SDS011;12762;51.730;5.356;2023-04-25T08:17:26;7.00;;;1.77;;
24617;SDS011;12762;51.730;5.356;2023-04-25T08:19:53;9.93;;;1.53;;
24617;SDS011;12762;51.730;5.356;2023-04-25T08:22:21;10.57;;;1.73;;
24617;SDS011;12762;51.730;5.356;2023-04-25T08:24:48;6.50;;;1.40;;
24617;SDS011;12762;51.730;5.356;2023-04-25T08:27:15;9.13;;;1.43;;
24617;SDS011;12762;51.730;5.356;2023-04-25T08:29:42;5.70;;;1.27;;
24617;SDS011;12762;51.730;5.356;2023-04-25T08:32:08;9.20;;;1.77;;
24617;SDS011;12762;51.730;5.356;2023-04-25T08:34:35;6.50;;;1.60;;
24617;SDS011;12762;51.730;5.356;2023-04-25T08:37:04;9.60;;;1.30;;
24617;SDS011;12762;51.730;5.356;2023-04-25T08:39:31;7.60;;;1.30;;
24617;SDS011;12762;51.730;5.356;2023-04-25T08:41:58;8.50;;;1.27;;
24617;SDS011;12762;51.730;5.356;2023-04-25T08:44:30;5.17;;;1.17;;
24617;SDS011;12762;51.730;5.356;2023-04-25T08:46:59;9.27;;;1.60;;
24617;SDS011;12762;51.730;5.356;2023-04-25T08:49:26;9.80;;;1.60;;
24617;SDS011;12762;51.730;5.356;2023-04-25T08:51:54;7.70;;;1.47;;
24617;SDS011;12762;51.730;5.356;2023-04-25T08:54:26;6.23;;;1.53;;
24617;SDS011;12762;51.730;5.356;2023-04-25T08:57:02;6.73;;;1.63;;
24617;SDS011;12762;51.730;5.356;2023-04-25T08:59:32;7.90;;;1.13;;
24617;SDS011;12762;51.730;5.356;2023-04-25T09:02:05;5.37;;;1.03;;
24617;SDS011;12762;51.730;5.356;2023-04-25T09:04:32;4.53;;;1.10;;
24617;SDS011;12762;51.730;5.356;2023-04-25T09:06:59;6.33;;;1.60;;
24617;SDS011;12762;51.730;5.356;2023-04-25T09:09:26;6.00;;;1.13;;
24617;SDS011;12762;51.730;5.356;2023-04-25T09:11:53;7.73;;;0.90;;
24617;SDS011;12762;51.730;5.356;2023-04-25T09:14:22;7.47;;;1.10;;
24617;SDS011;12762;51.730;5.356;2023-04-25T09:19:35;5.50;;;1.40;;
24617;SDS011;12762;51.730;5.356;2023-04-25T09:22:07;3.17;;;1.00;;
24617;SDS011;12762;51.730;5.356;2023-04-25T09:27:13;5.97;;;1.23;;
24617;SDS011;12762;51.730;5.356;2023-04-25T09:29:56;5.17;;;1.20;;
24617;SDS011;12762;51.730;5.356;2023-04-25T09:32:26;5.13;;;1.50;;
24617;SDS011;12762;51.730;5.356;2023-04-25T09:34:54;5.80;;;1.03;;
24617;SDS011;12762;51.730;5.356;2023-04-25T09:37:28;1.97;;;0.70;;
24617;SDS011;12762;51.730;5.356;2023-04-25T09:39:57;5.50;;;0.83;;
24617;SDS011;12762;51.730;5.356;2023-04-25T09:42:26;5.63;;;1.10;;
24617;SDS011;12762;51.730;5.356;2023-04-25T09:44:55;6.33;;;1.20;;
24617;SDS011;12762;51.730;5.356;2023-04-25T09:47:23;4.60;;;1.17;;
24617;SDS011;12762;51.730;5.356;2023-04-25T09:49:51;5.23;;;1.00;;
24617;SDS011;12762;51.730;5.356;2023-04-25T09:52:24;7.80;;;1.07;;
24617;SDS011;12762;51.730;5.356;2023-04-25T09:54:51;4.33;;;1.10;;
24617;SDS011;12762;51.730;5.356;2023-04-25T09:57:23;8.53;;;1.23;;
24617;SDS011;12762;51.730;5.356;2023-04-25T09:59:51;5.23;;;0.97;;
24617;SDS011;12762;51.730;5.356;2023-04-25T10:02:22;3.27;;;1.00;;
24617;SDS011;12762;51.730;5.356;2023-04-25T10:04:52;7.60;;;1.10;;
24617;SDS011;12762;51.730;5.356;2023-04-25T10:07:22;5.50;;;0.80;;
24617;SDS011;12762;51.730;5.356;2023-04-25T10:09:59;7.47;;;1.27;;
24617;SDS011;12762;51.730;5.356;2023-04-25T10:12:30;4.23;;;1.00;;
24617;SDS011;12762;51.730;5.356;2023-04-25T10:14:59;6.50;;;0.90;;
24617;SDS011;12762;51.730;5.356;2023-04-25T10:17:26;4.80;;;0.80;;
24617;SDS011;12762;51.730;5.356;2023-04-25T10:19:56;4.30;;;0.80;;
24617;SDS011;12762;51.730;5.356;2023-04-25T10:22:34;2.23;;;0.70;;
24617;SDS011;12762;51.730;5.356;2023-04-25T10:25:03;5.27;;;0.90;;
24617;SDS011;12762;51.730;5.356;2023-04-25T10:27:31;4.70;;;1.03;;
24617;SDS011;12762;51.730;5.356;2023-04-25T10:30:08;7.53;;;1.20;;
24617;SDS011;12762;51.730;5.356;2023-04-25T10:32:43;4.87;;;1.30;;
24617;SDS011;12762;51.730;5.356;2023-04-25T10:37:56;5.73;;;1.63;;
24617;SDS011;12762;51.730;5.356;2023-04-25T10:40:29;4.30;;;0.97;;
24617;SDS011;12762;51.730;5.356;2023-04-25T10:46:02;3.87;;;0.70;;
24617;SDS011;12762;51.730;5.356;2023-04-25T10:48:54;6.13;;;0.93;;
24617;SDS011;12762;51.730;5.356;2023-04-25T10:51:23;6.40;;;0.87;;
24617;SDS011;12762;51.730;5.356;2023-04-25T10:58:49;4.77;;;0.70;;
24617;SDS011;12762;51.730;5.356;2023-04-25T11:01:21;4.63;;;0.90;;
24617;SDS011;12762;51.730;5.356;2023-04-25T11:03:57;5.87;;;0.70;;
24617;SDS011;12762;51.730;5.356;2023-04-25T11:06:31;4.20;;;0.67;;
24617;SDS011;12762;51.730;5.356;2023-04-25T11:09:26;6.47;;;1.00;;
24617;SDS011;12762;51.730;5.356;2023-04-25T11:11:55;4.57;;;0.80;;
24617;SDS011;12762;51.730;5.356;2023-04-25T11:14:22;3.93;;;0.73;;
24617;SDS011;12762;51.730;5.356;2023-04-25T11:16:56;4.83;;;0.87;;
24617;SDS011;12762;51.730;5.356;2023-04-25T11:19:27;2.00;;;0.60;;
24617;SDS011;12762;51.730;5.356;2023-04-25T11:21:58;4.37;;;0.80;;
24617;SDS011;12762;51.730;5.356;2023-04-25T11:24:32;1.97;;;0.60;;
24617;SDS011;12762;51.730;5.356;2023-04-25T11:27:01;7.50;;;1.10;;
24617;SDS011;12762;51.730;5.356;2023-04-25T11:29:30;3.60;;;0.83;;
24617;SDS011;12762;51.730;5.356;2023-04-25T11:31:58;4.23;;;1.00;;
24617;SDS011;12762;51.730;5.356;2023-04-25T11:34:27;1.87;;;0.80;;
24617;SDS011;12762;51.730;5.356;2023-04-25T11:36:57;4.37;;;0.70;;
24617;SDS011;12762;51.730;5.356;2023-04-25T11:39:24;3.13;;;0.50;;
24617;SDS011;12762;51.730;5.356;2023-04-25T11:41:52;3.67;;;0.67;;
24617;SDS011;12762;51.730;5.356;2023-04-25T11:44:19;2.87;;;0.60;;
24617;SDS011;12762;51.730;5.356;2023-04-25T11:46:47;2.67;;;0.80;;
24617;SDS011;12762;51.730;5.356;2023-04-25T11:49:17;2.70;;;0.53;;
24617;SDS011;12762;51.730;5.356;2023-04-25T11:51:45;5.60;;;0.70;;
24617;SDS011;12762;51.730;5.356;2023-04-25T11:54:14;3.33;;;0.70;;
24617;SDS011;12762;51.730;5.356;2023-04-25T11:56:41;3.23;;;0.60;;
24617;SDS011;12762;51.730;5.356;2023-04-25T11:59:09;2.40;;;0.57;;
24617;SDS011;12762;51.730;5.356;2023-04-25T12:01:37;3.83;;;0.63;;
24617;SDS011;12762;51.730;5.356;2023-04-25T12:04:12;5.63;;;0.90;;
24617;SDS011;12762;51.730;5.356;2023-04-25T12:06:44;2.70;;;0.80;;
24617;SDS011;12762;51.730;5.356;2023-04-25T12:09:16;4.77;;;0.80;;
24617;SDS011;12762;51.730;5.356;2023-04-25T12:11:48;3.13;;;0.70;;
24617;SDS011;12762;51.730;5.356;2023-04-25T12:14:25;3.47;;;1.00;;
24617;SDS011;12762;51.730;5.356;2023-04-25T12:16:57;4.93;;;0.80;;
24617;SDS011;12762;51.730;5.356;2023-04-25T12:19:26;5.80;;;1.00;;
24617;SDS011;12762;51.730;5.356;2023-04-25T12:22:00;3.97;;;0.87;;
24617;SDS011;12762;51.730;5.356;2023-04-25T12:24:29;4.33;;;0.80;;
24617;SDS011;12762;51.730;5.356;2023-04-25T12:27:02;8.30;;;0.73;;
24617;SDS011;12762;51.730;5.356;2023-04-25T12:29:32;4.27;;;0.77;;
24617;SDS011;12762;51.730;5.356;2023-04-25T12:32:15;5.03;;;0.70;;
24617;SDS011;12762;51.730;5.356;2023-04-25T12:34:43;6.93;;;0.80;;
24617;SDS011;12762;51.730;5.356;2023-04-25T12:37:10;3.50;;;0.80;;
24617;SDS011;12762;51.730;5.356;2023-04-25T12:39:37;6.13;;;1.20;;
24617;SDS011;12762;51.730;5.356;2023-04-25T12:42:04;6.83;;;1.30;;
24617;SDS011;12762;51.730;5.356;2023-04-25T12:44:35;4.00;;;0.90;;
24617;SDS011;12762;51.730;5.356;2023-04-25T12:47:01;3.87;;;0.93;;
24617;SDS011;12762;51.730;5.356;2023-04-25T12:49:29;4.03;;;1.20;;
24617;SDS011;12762;51.730;5.356;2023-04-25T12:51:58;4.13;;;0.87;;
24617;SDS011;12762;51.730;5.356;2023-04-25T12:54:25;5.23;;;0.80;;
24617;SDS011;12762;51.730;5.356;2023-04-25T12:56:52;3.83;;;0.70;;
24617;SDS011;12762;51.730;5.356;2023-04-25T12:59:18;2.83;;;0.50;;
24617;SDS011;12762;51.730;5.356;2023-04-25T13:01:46;4.63;;;0.87;;
24617;SDS011;12762;51.730;5.356;2023-04-25T13:04:13;5.40;;;0.80;;
24617;SDS011;12762;51.730;5.356;2023-04-25T13:06:41;3.70;;;0.80;;
24617;SDS011;12762;51.730;5.356;2023-04-25T13:09:08;4.23;;;0.63;;
24617;SDS011;12762;51.730;5.356;2023-04-25T13:11:35;2.67;;;0.87;;
24617;SDS011;12762;51.730;5.356;2023-04-25T13:14:02;3.80;;;0.80;;
24617;SDS011;12762;51.730;5.356;2023-04-25T13:16:29;5.93;;;1.37;;
24617;SDS011;12762;51.730;5.356;2023-04-25T13:18:56;7.73;;;1.03;;
24617;SDS011;12762;51.730;5.356;2023-04-25T13:21:23;4.43;;;0.80;;
24617;SDS011;12762;51.730;5.356;2023-04-25T13:23:50;5.20;;;0.73;;
24617;SDS011;12762;51.730;5.356;2023-04-25T13:26:17;5.20;;;1.47;;
24617;SDS011;12762;51.730;5.356;2023-04-25T13:28:44;4.10;;;0.93;;
24617;SDS011;12762;51.730;5.356;2023-04-25T13:31:11;4.57;;;0.90;;
24617;SDS011;12762;51.730;5.356;2023-04-25T13:33:38;5.93;;;1.07;;
24617;SDS011;12762;51.730;5.356;2023-04-25T13:36:05;5.53;;;0.90;;
24617;SDS011;12762;51.730;5.356;2023-04-25T13:38:32;6.33;;;0.80;;
24617;SDS011;12762;51.730;5.356;2023-04-25T13:40:59;2.33;;;0.90;;
24617;SDS011;12762;51.730;5.356;2023-04-25T13:43:29;6.00;;;1.27;;
24617;SDS011;12762;51.730;5.356;2023-04-25T13:45:58;3.77;;;0.87;;
24617;SDS011;12762;51.730;5.356;2023-04-25T13:48:25;2.90;;;0.90;;
24617;SDS011;12762;51.730;5.356;2023-04-25T13:50:52;5.30;;;1.10;;
24617;SDS011;12762;51.730;5.356;2023-04-25T13:53:19;7.00;;;1.37;;
24617;SDS011;12762;51.730;5.356;2023-04-25T13:55:46;5.50;;;1.10;;
24617;SDS011;12762;51.730;5.356;2023-04-25T13:58:12;3.60;;;1.10;;
24617;SDS011;12762;51.730;5.356;2023-04-25T14:00:39;7.13;;;0.97;;
24617;SDS011;12762;51.730;5.356;2023-04-25T14:03:09;5.03;;;1.07;;
24617;SDS011;12762;51.730;5.356;2023-04-25T14:05:36;5.33;;;1.03;;
24617;SDS011;12762;51.730;5.356;2023-04-25T14:08:05;4.47;;;1.00;;
24617;SDS011;12762;51.730;5.356;2023-04-25T14:10:33;3.87;;;1.00;;
24617;SDS011;12762;51.730;5.356;2023-04-25T14:13:01;4.87;;;1.20;;
24617;SDS011;12762;51.730;5.356;2023-04-25T14:15:30;5.40;;;1.43;;
24617;SDS011;12762;51.730;5.356;2023-04-25T14:17:58;7.37;;;1.20;;
24617;SDS011;12762;51.730;5.356;2023-04-25T14:20:26;5.83;;;1.17;;
24617;SDS011;12762;51.730;5.356;2023-04-25T14:22:53;5.50;;;1.37;;
24617;SDS011;12762;51.730;5.356;2023-04-25T14:25:22;4.63;;;0.93;;
24617;SDS011;12762;51.730;5.356;2023-04-25T14:27:49;5.60;;;0.90;;
24617;SDS011;12762;51.730;5.356;2023-04-25T14:30:19;5.90;;;1.13;;
24617;SDS011;12762;51.730;5.356;2023-04-25T14:32:50;4.40;;;0.90;;
24617;SDS011;12762;51.730;5.356;2023-04-25T14:35:17;4.27;;;0.80;;
24617;SDS011;12762;51.730;5.356;2023-04-25T14:37:44;4.07;;;0.80;;
24617;SDS011;12762;51.730;5.356;2023-04-25T14:40:11;3.37;;;0.60;;
24617;SDS011;12762;51.730;5.356;2023-04-25T14:42:39;4.07;;;1.03;;
24617;SDS011;12762;51.730;5.356;2023-04-25T14:45:07;5.33;;;1.00;;
24617;SDS011;12762;51.730;5.356;2023-04-25T14:47:37;4.57;;;0.80;;
24617;SDS011;12762;51.730;5.356;2023-04-25T14:50:05;3.30;;;0.70;;
24617;SDS011;12762;51.730;5.356;2023-04-25T14:52:33;3.13;;;0.67;;
24617;SDS011;12762;51.730;5.356;2023-04-25T14:55:00;3.20;;;0.70;;
24617;SDS011;12762;51.730;5.356;2023-04-25T14:57:32;10.80;;;0.83;;
24617;SDS011;12762;51.730;5.356;2023-04-25T14:59:59;3.43;;;0.90;;
24617;SDS011;12762;51.730;5.356;2023-04-25T15:02:27;5.43;;;0.90;;
24617;SDS011;12762;51.730;5.356;2023-04-25T15:04:54;2.60;;;0.80;;